Time;durP1;ratioP1;P1;durP2;ratioP2;P2;SDS_P1;SDS_P2;PMS_P1;PMS_P2;Temp;Humidity;BMP_temperature;BMP_pressure;BME280_temperature;BME280_humidity;BME280_pressure;Samples;Min_cycle;Max_cycle;Signal;HPM_P1;HPM_P2
2022/09/09 00:02:15;;;;;;;0.93;0.50;;;9.90;99.90;;;;;;5101680;28;20124;-65
2022/09/09 00:04:58;;;;;;;4.47;0.90;;;9.90;99.90;;;;;;5081150;28;20167;-66
2022/09/09 00:07:24;;;;;;;4.45;1.67;;;9.90;99.90;;;;;;5082321;28;20044;-68
2022/09/09 00:10:07;;;;;;;3.75;1.00;;;9.90;99.90;;;;;;5083813;28;20127;-65
2022/09/09 00:12:42;;;;;;;5.00;1.42;;;10.00;99.90;;;;;;5083830;28;20046;-68
2022/09/09 00:15:17;;;;;;;2.72;0.95;;;9.90;99.90;;;;;;5082863;28;20150;-68
2022/09/09 00:18:03;;;;;;;3.42;1.20;;;10.00;99.90;;;;;;5084894;28;20129;-65
2022/09/09 00:20:40;;;;;;;2.40;1.00;;;9.90;99.90;;;;;;5084012;28;20040;-66
2022/09/09 00:23:28;;;;;;;1.17;0.90;;;10.00;99.90;;;;;;5086450;28;20125;-68
2022/09/09 00:26:22;;;;;;;4.95;1.30;;;10.00;99.90;;;;;;5065419;28;20122;-64
2022/09/09 00:28:58;;;;;;;1.08;0.95;;;10.00;99.90;;;;;;5078978;28;20074;-65
2022/09/09 00:31:28;;;;;;;4.13;1.35;;;10.00;99.90;;;;;;5088251;28;20085;-66
2022/09/09 00:34:04;;;;;;;2.08;1.30;;;10.00;99.90;;;;;;5075200;28;20052;-65
2022/09/09 00:36:34;;;;;;;4.47;1.50;;;9.90;99.90;;;;;;5083926;28;20403;-67
2022/09/09 00:39:02;;;;;;;3.00;1.17;;;10.00;99.90;;;;;;5088625;28;20162;-66
2022/09/09 00:41:59;;;;;;;1.17;1.08;;;10.00;99.90;;;;;;5080093;28;20457;-65
2022/09/09 00:44:37;;;;;;;6.22;1.08;;;10.00;99.90;;;;;;5073554;28;20044;-65
2022/09/09 00:47:12;;;;;;;3.25;1.40;;;10.00;99.90;;;;;;5083856;28;20036;-67
2022/09/09 00:50:08;;;;;;;2.22;0.90;;;10.00;99.90;;;;;;5081806;28;20129;-65
2022/09/09 00:52:45;;;;;;;2.72;0.95;;;10.00;99.90;;;;;;5058344;28;20171;-66
2022/09/09 00:55:27;;;;;;;1.92;1.02;;;10.00;99.90;;;;;;5081123;28;20821;-65
2022/09/09 00:57:55;;;;;;;3.30;1.00;;;10.00;99.90;;;;;;5080202;28;20050;-65
2022/09/09 01:00:29;;;;;;;0.93;0.77;;;10.00;99.90;;;;;;5071267;28;20044;-65
2022/09/09 01:03:33;;;;;;;3.88;1.50;;;10.00;99.90;;;;;;5084638;28;20047;-68
2022/09/09 01:06:15;;;;;;;3.42;1.00;;;10.00;99.90;;;;;;5076503;28;20132;-69
2022/09/09 01:09:07;;;;;;;1.33;1.23;;;9.90;99.90;;;;;;5052084;28;20055;-66
2022/09/09 01:11:57;;;;;;;1.90;1.35;;;9.90;99.90;;;;;;5079543;28;20094;-66
2022/09/09 01:14:34;;;;;;;0.88;0.70;;;9.90;99.90;;;;;;5076702;28;20501;-66
2022/09/09 01:17:24;;;;;;;1.88;1.10;;;9.80;99.90;;;;;;5065972;28;20146;-66
2022/09/09 01:19:58;;;;;;;1.40;1.30;;;9.80;99.90;;;;;;5083686;28;20067;-68
2022/09/09 01:22:39;;;;;;;2.50;1.45;;;9.80;99.90;;;;;;5070659;28;20035;-65
2022/09/09 01:25:21;;;;;;;4.53;1.17;;;9.80;99.90;;;;;;5069351;28;20105;-67
2022/09/09 01:28:21;;;;;;;6.03;1.40;;;9.80;99.90;;;;;;5082202;28;20850;-68
2022/09/09 01:30:50;;;;;;;1.98;1.88;;;9.80;99.90;;;;;;5056775;28;20040;-65
2022/09/09 01:33:21;;;;;;;1.70;1.60;;;9.70;99.90;;;;;;5063234;28;20063;-67
2022/09/09 01:36:02;;;;;;;2.58;1.45;;;9.70;99.90;;;;;;5083328;28;20047;-66
2022/09/09 01:38:36;;;;;;;1.77;1.00;;;9.70;99.90;;;;;;5072834;28;20047;-66
2022/09/09 01:41:04;;;;;;;5.60;1.70;;;9.70;99.90;;;;;;5083085;28;20056;-65
2022/09/09 01:43:42;;;;;;;1.65;1.05;;;9.70;99.90;;;;;;5078507;28;20342;-65
2022/09/09 01:46:10;;;;;;;3.63;1.42;;;9.70;99.90;;;;;;5064237;28;20048;-71
2022/09/09 01:48:40;;;;;;;1.80;1.10;;;9.70;99.90;;;;;;5066320;28;20044;-65
2022/09/09 01:51:10;;;;;;;;;;;9.70;99.90;;;;;;5067836;28;20142;-67
2022/09/09 01:53:41;;;;;;;3.08;1.13;;;9.70;99.90;;;;;;5070179;28;20260;-65
2022/09/09 01:56:18;;;;;;;1.42;1.33;;;9.70;99.90;;;;;;5060517;28;20068;-66
2022/09/09 01:58:57;;;;;;;3.35;1.23;;;9.70;99.90;;;;;;5067435;28;20055;-67
2022/09/09 02:01:36;;;;;;;2.67;2.33;;;9.70;99.90;;;;;;5077252;28;20096;-66
2022/09/09 02:04:30;;;;;;;1.83;1.38;;;9.70;99.90;;;;;;5073394;28;20059;-66
2022/09/09 02:06:57;;;;;;;3.22;1.27;;;9.70;99.90;;;;;;5068581;28;20082;-66
2022/09/09 02:09:30;;;;;;;1.85;1.25;;;9.70;99.90;;;;;;5095621;28;20048;-66
2022/09/09 02:12:11;;;;;;;3.35;1.33;;;9.70;99.90;;;;;;5068448;28;20131;-67
2022/09/09 02:14:54;;;;;;;2.05;0.75;;;9.70;99.90;;;;;;5058924;28;20044;-67
2022/09/09 02:17:32;;;;;;;1.63;1.52;;;9.70;99.90;;;;;;5072022;28;20129;-67
2022/09/09 02:20:12;;;;;;;3.17;1.73;;;9.70;99.90;;;;;;5072485;28;20044;-66
2022/09/09 02:22:49;;;;;;;3.80;1.17;;;9.70;99.90;;;;;;5085472;28;20036;-65
2022/09/09 02:25:22;;;;;;;2.25;1.33;;;9.70;99.90;;;;;;5065063;28;20040;-65
2022/09/09 02:27:53;;;;;;;2.35;1.65;;;9.70;99.90;;;;;;5063522;28;20048;-67
2022/09/09 02:30:21;;;;;;;4.38;1.63;;;9.70;99.90;;;;;;5065682;28;20458;-66
2022/09/09 02:32:59;;;;;;;4.18;1.73;;;9.80;99.90;;;;;;5084096;28;20705;-65
2022/09/09 02:35:43;;;;;;;;;;;9.80;99.90;;;;;;5091413;28;20044;-65
2022/09/09 02:38:15;;;;;;;6.30;1.50;;;9.80;99.90;;;;;;5081628;28;20026;-67
2022/09/09 02:40:53;;;;;;;3.00;1.50;;;9.80;99.90;;;;;;5066961;28;20338;-68
2022/09/09 02:43:20;;;;;;;2.50;1.55;;;9.80;99.90;;;;;;5065012;28;20048;-65
2022/09/09 02:46:07;;;;;;;3.72;1.58;;;9.80;99.90;;;;;;5071949;28;20568;-65
2022/09/09 02:49:28;;;;;;;2.70;1.40;;;9.80;99.90;;;;;;5084525;28;20375;-65
2022/09/09 02:52:00;;;;;;;;;;;9.80;99.90;;;;;;5044367;28;20050;-67
2022/09/09 02:54:33;;;;;;;2.60;1.15;;;9.80;99.90;;;;;;5066570;28;19981;-69
2022/09/09 02:57:11;;;;;;;2.03;1.50;;;9.80;99.90;;;;;;5067045;28;20054;-66
2022/09/09 02:59:41;;;;;;;4.75;1.58;;;9.80;99.90;;;;;;5065778;28;20071;-66
2022/09/09 03:02:09;;;;;;;3.15;2.20;;;9.80;99.90;;;;;;5067740;28;20070;-65
2022/09/09 03:04:38;;;;;;;4.10;2.15;;;9.90;99.90;;;;;;5066413;28;20063;-66
2022/09/09 03:07:06;;;;;;;2.42;1.40;;;9.90;99.90;;;;;;5066440;28;20037;-68
2022/09/09 03:09:33;;;;;;;2.35;1.45;;;9.90;99.90;;;;;;5083207;28;20047;-66
2022/09/09 03:12:00;;;;;;;2.65;1.52;;;9.90;99.90;;;;;;5085809;28;20040;-69
2022/09/09 03:14:28;;;;;;;3.22;1.67;;;9.90;99.90;;;;;;5063033;28;20477;-70
2022/09/09 03:16:56;;;;;;;3.78;1.85;;;9.90;99.90;;;;;;5079820;28;20112;-65
2022/09/09 03:19:24;;;;;;;3.90;1.67;;;9.90;99.90;;;;;;5064693;28;20048;-66
2022/09/09 03:21:51;;;;;;;6.50;1.70;;;10.00;99.90;;;;;;5065913;28;20502;-66
2022/09/09 03:24:18;;;;;;;4.65;2.00;;;10.00;99.90;;;;;;5085069;28;20052;-64
2022/09/09 03:26:45;;;;;;;4.60;2.22;;;10.00;99.90;;;;;;5085141;28;20048;-68
2022/09/09 03:29:16;;;;;;;2.75;1.63;;;10.00;99.90;;;;;;5064818;28;20051;-69
2022/09/09 03:31:43;;;;;;;2.47;2.28;;;10.00;99.90;;;;;;5068896;28;20059;-67
2022/09/09 03:34:11;;;;;;;2.10;1.77;;;10.00;99.90;;;;;;5069519;28;20535;-69
2022/09/09 03:36:38;;;;;;;3.40;1.38;;;10.00;99.90;;;;;;5065213;28;20911;-68
2022/09/09 03:39:05;;;;;;;2.35;1.20;;;10.00;99.90;;;;;;5066001;28;20062;-65
2022/09/09 03:41:32;;;;;;;3.72;1.42;;;10.00;99.90;;;;;;5065396;28;20318;-67
2022/09/09 03:44:00;;;;;;;6.63;2.58;;;10.00;99.90;;;;;;5061580;28;20129;-68
2022/09/09 03:46:32;;;;;;;3.25;1.40;;;10.00;99.90;;;;;;5081453;28;20068;-66
2022/09/09 03:48:59;;;;;;;1.52;1.35;;;10.00;99.90;;;;;;5063628;28;20063;-65
2022/09/09 03:51:26;;;;;;;1.92;1.35;;;10.00;99.90;;;;;;5059999;28;21722;-72
2022/09/09 03:53:55;;;;;;;1.92;1.27;;;10.00;99.90;;;;;;5087826;28;20051;-71
2022/09/09 03:56:22;;;;;;;2.53;1.13;;;10.00;99.90;;;;;;5066900;28;20062;-65
2022/09/09 03:58:49;;;;;;;2.03;1.35;;;10.10;99.90;;;;;;5065467;28;20054;-65
2022/09/09 04:01:17;;;;;;;2.95;1.60;;;10.10;99.90;;;;;;5072459;28;20048;-66
2022/09/09 04:03:46;;;;;;;2.33;1.63;;;10.10;99.90;;;;;;5083084;28;20055;-67
2022/09/09 04:06:14;;;;;;;4.00;1.40;;;10.20;99.90;;;;;;5082690;28;20067;-68
2022/09/09 04:08:44;;;;;;;4.68;1.25;;;10.10;99.90;;;;;;5066131;28;20134;-67
2022/09/09 04:11:12;;;;;;;3.20;1.10;;;10.10;99.90;;;;;;5061433;28;20044;-69
2022/09/09 04:13:40;;;;;;;2.78;1.67;;;10.10;99.90;;;;;;5064838;28;20052;-67
2022/09/09 04:16:12;;;;;;;1.80;1.30;;;10.10;99.90;;;;;;5060745;28;20094;-68
2022/09/09 04:18:41;;;;;;;2.40;1.23;;;10.10;99.90;;;;;;5064294;28;20048;-70
2022/09/09 04:21:09;;;;;;;7.75;2.00;;;10.10;99.90;;;;;;5067878;28;20366;-65
2022/09/09 04:23:36;;;;;;;1.50;1.40;;;10.20;99.90;;;;;;5063614;28;20052;-65
2022/09/09 04:26:05;;;;;;;4.50;1.70;;;10.20;99.90;;;;;;5063451;28;20052;-67
2022/09/09 04:28:35;;;;;;;3.05;1.48;;;10.20;99.90;;;;;;5066218;28;20119;-67
2022/09/09 04:31:09;;;;;;;1.83;1.27;;;10.30;99.90;;;;;;5066797;28;20265;-65
2022/09/09 04:33:39;;;;;;;2.80;2.05;;;10.20;99.90;;;;;;5055034;28;20056;-65
2022/09/09 04:36:08;;;;;;;2.33;1.92;;;10.20;99.90;;;;;;5055981;28;20067;-66
2022/09/09 04:38:36;;;;;;;2.45;1.73;;;10.30;99.90;;;;;;5057545;28;20072;-67
2022/09/09 04:41:04;;;;;;;4.72;1.98;;;10.30;99.90;;;;;;5064981;28;20064;-66
2022/09/09 04:43:34;;;;;;;2.45;1.42;;;10.40;99.90;;;;;;5066821;28;20529;-66
2022/09/09 04:46:03;;;;;;;3.40;1.60;;;10.40;99.90;;;;;;5065242;28;20044;-67
2022/09/09 04:48:31;;;;;;;6.68;1.65;;;10.50;99.90;;;;;;5086379;28;20044;-70
2022/09/09 04:51:04;;;;;;;1.85;1.65;;;10.50;99.90;;;;;;5064438;28;20063;-67
2022/09/09 04:53:34;;;;;;;3.13;2.25;;;10.50;99.90;;;;;;5066704;28;20785;-66
2022/09/09 04:56:05;;;;;;;6.85;2.38;;;10.60;99.90;;;;;;5065517;28;20116;-66
2022/09/09 04:58:36;;;;;;;2.05;1.50;;;10.70;99.90;;;;;;5064262;28;20373;-66
2022/09/09 05:01:24;;;;;;;2.80;1.48;;;10.70;99.90;;;;;;5065052;28;20724;-67
2022/09/09 05:03:53;;;;;;;3.75;2.13;;;10.70;99.90;;;;;;5062955;28;20711;-71
2022/09/09 05:06:22;;;;;;;2.53;1.85;;;10.80;99.90;;;;;;5083932;28;20121;-65
2022/09/09 05:08:54;;;;;;;1.73;1.00;;;10.90;99.90;;;;;;5084599;28;20040;-66
2022/09/09 05:11:29;;;;;;;2.63;2.53;;;10.90;99.90;;;;;;5056527;28;20082;-67
2022/09/09 05:14:01;;;;;;;2.10;1.90;;;10.90;99.90;;;;;;5058830;28;20549;-69
2022/09/09 05:16:30;;;;;;;3.83;1.55;;;11.00;99.90;;;;;;5065704;28;20138;-67
2022/09/09 05:18:57;;;;;;;2.30;2.10;;;11.10;99.90;;;;;;5063610;28;20139;-66
2022/09/09 05:21:26;;;;;;;2.15;1.27;;;11.10;99.90;;;;;;5063704;28;20040;-66
2022/09/09 05:23:53;;;;;;;2.42;1.65;;;11.20;99.90;;;;;;5068237;28;20143;-67
2022/09/09 05:26:22;;;;;;;3.13;1.52;;;11.30;99.90;;;;;;5068153;28;20043;-66
2022/09/09 05:28:51;;;;;;;3.00;1.60;;;11.40;99.90;;;;;;5070326;28;20075;-66
2022/09/09 05:31:19;;;;;;;4.43;1.75;;;11.40;99.90;;;;;;5063313;28;20040;-67
2022/09/09 05:33:49;;;;;;;3.30;1.60;;;11.50;99.90;;;;;;5081400;28;20684;-66
2022/09/09 05:36:18;;;;;;;3.85;1.45;;;11.60;99.90;;;;;;5069946;28;20052;-68
2022/09/09 05:38:49;;;;;;;2.10;1.50;;;11.60;99.90;;;;;;5070667;28;20127;-65
2022/09/09 05:41:17;;;;;;;3.10;2.70;;;11.60;99.90;;;;;;5063446;28;20048;-66
2022/09/09 05:43:47;;;;;;;2.92;1.83;;;11.80;99.90;;;;;;5064321;28;20424;-66
2022/09/09 05:46:22;;;;;;;3.90;1.25;;;11.80;99.90;;;;;;5067482;28;20467;-67
2022/09/09 05:48:52;;;;;;;6.38;2.30;;;11.90;99.90;;;;;;5069898;28;20044;-67
2022/09/09 05:51:24;;;;;;;2.90;2.55;;;12.00;99.90;;;;;;5058723;28;20056;-66
2022/09/09 05:53:51;;;;;;;6.88;1.40;;;12.00;99.90;;;;;;5068204;28;20052;-66
2022/09/09 05:56:24;;;;;;;3.92;1.50;;;12.20;99.90;;;;;;5061463;28;20105;-67
2022/09/09 05:58:56;;;;;;;1.70;1.60;;;12.30;99.90;;;;;;5068671;28;20044;-65
2022/09/09 06:01:32;;;;;;;2.85;1.92;;;12.30;99.90;;;;;;5062232;28;20135;-68
2022/09/09 06:04:01;;;;;;;3.33;1.52;;;12.40;99.90;;;;;;5085238;28;20097;-66
2022/09/09 06:06:36;;;;;;;2.45;1.63;;;12.50;99.90;;;;;;5086740;28;20055;-67
2022/09/09 06:09:10;;;;;;;3.42;1.38;;;12.60;99.90;;;;;;5067335;28;20059;-68
2022/09/09 06:11:40;;;;;;;3.47;1.20;;;12.70;99.90;;;;;;5068287;28;20119;-64
2022/09/09 06:14:08;;;;;;;1.65;1.50;;;12.70;99.90;;;;;;5084294;28;20532;-69
2022/09/09 06:16:37;;;;;;;3.50;1.20;;;12.80;99.90;;;;;;5067953;28;20062;-66
2022/09/09 06:19:12;;;;;;;2.17;1.33;;;12.80;99.90;;;;;;5045597;28;20110;-66
2022/09/09 06:21:40;;;;;;;3.65;1.50;;;12.90;99.90;;;;;;5061841;28;20048;-65
2022/09/09 06:24:08;;;;;;;4.85;1.50;;;13.00;99.90;;;;;;5067517;28;20093;-67
2022/09/09 06:26:40;;;;;;;1.65;1.55;;;13.00;99.90;;;;;;5062599;28;20040;-67
2022/09/09 06:29:09;;;;;;;7.13;1.70;;;13.10;99.90;;;;;;5064663;28;20481;-68
2022/09/09 06:31:37;;;;;;;4.68;1.55;;;13.10;99.90;;;;;;5065490;28;20067;-66
2022/09/09 06:34:17;;;;;;;4.03;1.70;;;13.20;99.90;;;;;;5064503;28;20094;-65
2022/09/09 06:36:49;;;;;;;4.47;1.33;;;13.30;99.90;;;;;;5082405;28;20441;-65
2022/09/09 06:39:16;;;;;;;13.68;1.38;;;13.30;99.90;;;;;;5063787;28;20051;-69
2022/09/09 06:41:44;;;;;;;3.38;1.40;;;13.40;99.90;;;;;;5066636;28;20052;-67
2022/09/09 06:44:33;;;;;;;1.40;1.20;;;13.50;99.90;;;;;;5081152;28;20032;-65
2022/09/09 06:47:03;;;;;;;1.77;1.63;;;13.60;99.90;;;;;;5066392;28;20064;-68
2022/09/09 06:49:31;;;;;;;4.85;1.55;;;13.60;99.90;;;;;;5064115;28;20043;-72
2022/09/09 06:51:58;;;;;;;3.53;1.40;;;13.70;99.90;;;;;;5082723;28;20438;-66
2022/09/09 06:54:26;;;;;;;5.13;1.95;;;13.70;99.90;;;;;;5065553;28;20050;-67
2022/09/09 06:56:53;;;;;;;5.50;1.95;;;13.80;99.90;;;;;;5085145;28;20131;-66
2022/09/09 06:59:22;;;;;;;2.25;1.58;;;13.80;99.90;;;;;;5061178;28;20046;-70
2022/09/09 07:01:54;;;;;;;3.28;1.48;;;13.90;99.90;;;;;;5063118;28;20047;-65
2022/09/09 07:04:22;;;;;;;8.35;2.88;;;13.90;99.90;;;;;;5063754;28;20130;-66
2022/09/09 07:06:52;;;;;;;2.13;1.92;;;13.90;99.90;;;;;;5083270;28;20056;-68
2022/09/09 07:09:23;;;;;;;2.60;1.65;;;14.00;99.90;;;;;;5064557;28;20100;-66
2022/09/09 07:11:52;;;;;;;4.28;1.92;;;14.00;99.90;;;;;;5080533;28;20064;-66
2022/09/09 07:14:22;;;;;;;2.72;1.35;;;14.10;99.90;;;;;;5065457;28;20044;-66
2022/09/09 07:17:00;;;;;;;2.28;1.42;;;14.20;99.90;;;;;;5065543;28;20075;-67
2022/09/09 07:19:32;;;;;;;2.50;1.50;;;14.20;99.90;;;;;;5079435;28;20040;-65
2022/09/09 07:22:03;;;;;;;2.78;1.80;;;14.30;99.90;;;;;;5066302;28;20136;-68
2022/09/09 07:24:31;;;;;;;2.97;1.58;;;14.40;99.90;;;;;;5071921;28;20045;-68
2022/09/09 07:26:59;;;;;;;3.90;1.40;;;14.40;99.90;;;;;;5081205;28;20048;-65
2022/09/09 07:29:26;;;;;;;5.72;1.20;;;14.50;99.90;;;;;;5078893;28;20051;-66
2022/09/09 07:31:53;;;;;;;2.17;1.55;;;14.50;99.90;;;;;;5065798;28;20040;-66
2022/09/09 07:34:25;;;;;;;5.82;1.67;;;14.50;99.90;;;;;;5064665;28;20040;-68
2022/09/09 07:36:52;;;;;;;3.20;1.40;;;14.60;99.90;;;;;;5082152;28;20437;-67
2022/09/09 07:39:19;;;;;;;3.70;2.15;;;14.60;99.90;;;;;;5062298;28;20054;-70
2022/09/09 07:41:50;;;;;;;4.43;2.97;;;14.70;99.90;;;;;;5063587;28;20078;-66
2022/09/09 07:44:24;;;;;;;3.40;1.65;;;14.70;99.90;;;;;;5068432;28;20071;-68
2022/09/09 07:46:58;;;;;;;4.00;1.08;;;14.70;99.90;;;;;;5074395;28;20114;-65
2022/09/09 07:49:32;;;;;;;3.50;1.63;;;14.70;99.90;;;;;;5086854;28;20054;-66
2022/09/09 07:52:01;;;;;;;4.10;1.33;;;14.80;99.90;;;;;;5069006;28;20048;-65
2022/09/09 07:54:28;;;;;;;2.13;1.35;;;14.90;99.90;;;;;;5065614;28;20043;-68
2022/09/09 07:56:56;;;;;;;4.70;1.55;;;14.90;99.90;;;;;;5070329;28;20067;-67
2022/09/09 07:59:27;;;;;;;3.47;1.38;;;15.00;99.90;;;;;;5081468;28;20044;-67
2022/09/09 08:01:55;;;;;;;6.95;2.65;;;15.00;99.90;;;;;;5067195;28;20036;-67
2022/09/09 08:04:28;;;;;;;2.50;1.45;;;15.10;99.90;;;;;;5066510;28;20063;-68
2022/09/09 08:07:00;;;;;;;2.33;1.40;;;15.10;99.90;;;;;;5081665;28;20124;-68
2022/09/09 08:09:32;;;;;;;5.00;1.50;;;15.10;99.90;;;;;;5065724;28;20133;-68
2022/09/09 08:12:15;;;;;;;3.15;1.73;;;15.20;99.90;;;;;;5086337;28;20059;-69
2022/09/09 08:14:42;;;;;;;3.58;1.30;;;15.20;99.90;;;;;;5082315;28;20155;-67
2022/09/09 08:17:09;;;;;;;6.03;2.17;;;15.20;99.90;;;;;;5080474;28;20075;-70
2022/09/09 08:19:37;;;;;;;2.13;1.10;;;15.30;99.90;;;;;;5083707;28;20075;-68
2022/09/09 08:22:09;;;;;;;5.55;1.75;;;15.30;99.90;;;;;;5064216;28;20051;-66
2022/09/09 08:24:39;;;;;;;2.20;1.40;;;15.30;99.90;;;;;;5086505;28;20168;-65
2022/09/09 08:27:06;;;;;;;2.72;1.30;;;15.30;99.90;;;;;;5066927;28;20104;-70
2022/09/09 08:29:33;;;;;;;1.50;1.05;;;15.40;99.90;;;;;;5082714;28;20747;-67
2022/09/09 08:32:02;;;;;;;1.23;1.10;;;15.40;99.90;;;;;;5068812;28;20824;-66
2022/09/09 08:34:31;;;;;;;3.97;1.83;;;15.40;99.90;;;;;;5064397;28;20856;-65
2022/09/09 08:37:01;;;;;;;4.50;1.92;;;15.40;99.90;;;;;;5064636;28;20044;-67
2022/09/09 08:39:34;;;;;;;2.47;1.45;;;15.50;99.90;;;;;;5093775;28;20044;-67
2022/09/09 08:42:13;;;;;;;6.00;2.83;;;15.60;99.90;;;;;;5063904;28;20132;-67
2022/09/09 08:44:47;;;;;;;3.97;1.30;;;15.60;99.90;;;;;;5062771;28;20051;-68
2022/09/09 08:47:34;;;;;;;7.82;1.73;;;15.70;99.90;;;;;;5064522;28;20169;-67
2022/09/09 08:50:24;;;;;;;2.88;1.33;;;15.80;99.90;;;;;;5063010;28;20127;-66
2022/09/09 08:53:11;;;;;;;3.20;1.23;;;15.90;99.90;;;;;;5062415;28;20059;-70
2022/09/09 08:55:44;;;;;;;2.08;1.38;;;16.00;99.90;;;;;;5074748;28;20044;-66
2022/09/09 08:58:16;;;;;;;4.60;1.33;;;16.10;99.90;;;;;;5101025;27;20040;-71
2022/09/09 09:01:24;;;;;;;1.75;1.10;;;16.10;99.90;;;;;;5066753;28;20433;-67
2022/09/09 09:03:54;;;;;;;3.45;1.67;;;16.20;99.90;;;;;;5004640;28;20414;-70
2022/09/09 09:06:22;;;;;;;1.95;1.40;;;16.20;99.90;;;;;;5024448;28;20107;-68
2022/09/09 09:09:02;;;;;;;4.32;1.38;;;16.30;99.90;;;;;;5041327;28;20542;-67
2022/09/09 09:11:53;;;;;;;3.97;1.45;;;16.40;99.90;;;;;;5075112;28;20093;-67
2022/09/09 09:14:25;;;;;;;0.93;0.90;;;16.40;99.90;;;;;;5086306;28;20040;-67
2022/09/09 09:17:06;;;;;;;2.17;0.85;;;16.60;99.90;;;;;;5069971;28;20089;-67
2022/09/09 09:19:34;;;;;;;1.45;1.08;;;16.70;99.90;;;;;;5086029;28;20070;-69
2022/09/09 09:22:11;;;;;;;1.27;1.17;;;16.70;99.90;;;;;;5069162;28;20040;-68
2022/09/09 09:25:06;;;;;;;1.88;1.63;;;16.80;99.90;;;;;;5086554;28;20477;-68
2022/09/09 09:27:33;;;;;;;3.83;1.60;;;16.80;99.90;;;;;;5082906;28;20044;-68
2022/09/09 09:30:12;;;;;;;1.65;1.08;;;16.80;99.90;;;;;;5069179;28;20537;-66
2022/09/09 09:33:08;;;;;;;5.20;1.92;;;16.80;99.90;;;;;;5059001;28;20044;-69
2022/09/09 09:35:35;;;;;;;8.02;2.25;;;16.90;99.90;;;;;;5069470;28;20130;-66
2022/09/09 09:38:22;;;;;;;3.63;1.20;;;16.90;99.90;;;;;;5086773;28;20804;-72
2022/09/09 09:41:09;;;;;;;2.65;1.05;;;16.90;99.90;;;;;;5062312;28;20485;-68
2022/09/09 09:43:42;;;;;;;1.77;1.25;;;17.00;99.90;;;;;;5070565;28;20032;-69
2022/09/09 09:46:23;;;;;;;5.30;1.63;;;17.00;99.90;;;;;;5067552;28;20125;-69
2022/09/09 09:49:00;;;;;;;5.68;1.83;;;17.00;99.90;;;;;;5068837;28;20048;-66
2022/09/09 09:51:32;;;;;;;2.53;1.50;;;17.10;99.90;;;;;;5101249;28;20044;-67
2022/09/09 09:54:05;;;;;;;1.45;1.23;;;17.10;99.90;;;;;;5067025;28;20046;-73
2022/09/09 09:56:33;;;;;;;4.72;2.25;;;17.10;99.90;;;;;;5068563;28;20439;-65
2022/09/09 09:59:02;;;;;;;6.88;1.98;;;17.20;99.90;;;;;;5086146;28;20368;-66
2022/09/09 10:01:43;;;;;;;5.13;1.52;;;17.20;99.90;;;;;;5063148;28;20376;-69
2022/09/09 10:04:25;;;;;;;3.20;1.80;;;17.30;99.90;;;;;;5064207;28;20150;-71
2022/09/09 10:06:55;;;;;;;4.60;1.40;;;17.30;99.90;;;;;;5061631;28;20383;-67
2022/09/09 10:09:25;;;;;;;3.00;1.35;;;17.40;99.90;;;;;;5082181;28;20046;-69
2022/09/09 10:12:19;;;;;;;2.50;0.90;;;17.50;99.90;;;;;;5087529;28;20047;-66
2022/09/09 10:15:22;;;;;;;2.22;1.35;;;17.50;99.90;;;;;;5076607;28;20570;-69
2022/09/09 10:18:11;;;;;;;4.03;1.77;;;17.50;99.90;;;;;;5083891;28;20454;-66
2022/09/09 10:21:05;;;;;;;4.78;2.47;;;17.70;99.90;;;;;;5084306;28;20516;-66
2022/09/09 10:24:02;;;;;;;2.20;1.38;;;17.70;99.90;;;;;;5081135;28;20138;-67
2022/09/09 10:26:47;;;;;;;3.13;1.38;;;17.70;99.90;;;;;;5086124;28;20818;-71
2022/09/09 10:29:43;;;;;;;6.20;1.70;;;17.70;99.90;;;;;;5084070;28;20483;-68
2022/09/09 10:32:22;;;;;;;3.75;1.13;;;17.80;99.90;;;;;;5086733;28;20137;-68
2022/09/09 10:35:17;;;;;;;3.20;1.10;;;17.90;99.90;;;;;;5085388;28;20043;-66
2022/09/09 10:37:56;;;;;;;6.78;2.50;;;18.00;99.90;;;;;;5087287;28;20428;-65
2022/09/09 10:40:42;;;;;;;1.88;1.45;;;18.10;99.90;;;;;;5102996;28;20067;-65
2022/09/09 10:43:16;;;;;;;3.40;1.13;;;18.10;99.90;;;;;;5100099;28;20040;-67
2022/09/09 10:46:22;;;;;;;1.90;1.10;;;18.20;99.90;;;;;;5105022;28;20139;-67
2022/09/09 10:49:08;;;;;;;1.48;1.33;;;18.10;99.90;;;;;;5101510;27;20046;-69
2022/09/09 10:52:02;;;;;;;4.90;1.95;;;18.30;99.90;;;;;;5085525;28;20082;-68
2022/09/09 10:54:51;;;;;;;1.75;1.42;;;18.30;99.90;;;;;;5103971;27;20047;-66
2022/09/09 10:57:31;;;;;;;3.50;1.35;;;18.30;99.90;;;;;;5107372;27;20093;-67
2022/09/09 11:00:01;;;;;;;;;;;18.30;99.90;;;;;;5111578;27;20043;-66
2022/09/09 11:02:34;;;;;;;4.63;1.53;;;18.30;99.90;;;;;;5106154;27;19972;-66
2022/09/09 11:05:10;;;;;;;3.17;1.50;;;18.30;99.90;;;;;;5108892;27;21014;-67
2022/09/09 11:07:43;;;;;;;1.42;1.20;;;18.30;99.90;;;;;;5105281;27;20054;-69
2022/09/09 11:10:24;;;;;;;2.38;1.58;;;18.30;99.90;;;;;;5108906;27;20053;-69
2022/09/09 11:12:56;;;;;;;3.75;1.80;;;18.40;99.90;;;;;;5108476;27;20210;-66
2022/09/09 11:15:40;;;;;;;2.17;1.40;;;18.40;99.90;;;;;;5104582;27;20482;-72
2022/09/09 11:18:13;;;;;;;1.60;1.00;;;18.50;99.90;;;;;;5107716;27;20134;-70
2022/09/09 11:20:41;;;;;;;3.90;1.08;;;18.60;99.90;;;;;;5106170;27;20076;-67
2022/09/09 11:23:25;;;;;;;4.30;1.63;;;18.60;99.90;;;;;;5106102;27;20046;-69
2022/09/09 11:25:57;;;;;;;4.43;1.83;;;18.60;99.90;;;;;;5102702;27;20072;-66
2022/09/09 11:28:47;;;;;;;2.20;1.80;;;18.60;99.90;;;;;;5105593;28;20104;-68
2022/09/09 11:31:41;;;;;;;1.42;1.33;;;18.70;99.90;;;;;;5115428;27;20635;-67
2022/09/09 11:34:27;;;;;;;2.47;1.35;;;18.70;99.90;;;;;;5107432;27;20134;-66
2022/09/09 11:37:26;;;;;;;1.95;1.38;;;18.70;99.90;;;;;;5107416;27;20035;-70
2022/09/09 11:39:52;;;;;;;3.78;1.42;;;18.70;99.90;;;;;;5104954;27;20431;-66
2022/09/09 11:42:22;;;;;;;6.47;1.83;;;18.70;99.90;;;;;;5103268;27;20047;-66
2022/09/09 11:44:50;;;;;;;5.22;1.75;;;18.70;99.90;;;;;;5107690;27;20365;-67
2022/09/09 11:47:24;;;;;;;3.22;1.48;;;18.70;99.90;;;;;;5107203;27;20031;-68
2022/09/09 11:49:52;;;;;;;6.25;1.73;;;18.80;99.90;;;;;;5106314;27;20171;-68
2022/09/09 11:52:43;;;;;;;3.92;1.52;;;18.70;99.90;;;;;;5116774;27;20062;-67
2022/09/09 11:55:23;;;;;;;5.07;1.50;;;18.60;99.90;;;;;;5100718;28;20043;-70
2022/09/09 11:58:01;;;;;;;3.47;1.40;;;18.60;99.90;;;;;;5112964;27;20138;-65
2022/09/09 12:00:40;;;;;;;3.35;1.55;;;18.60;99.90;;;;;;5110678;27;20051;-68
2022/09/09 12:03:33;;;;;;;4.13;2.83;;;18.70;99.90;;;;;;5102367;27;20137;-70
2022/09/09 12:06:09;;;;;;;3.72;1.33;;;18.90;99.90;;;;;;5097936;27;20372;-70
2022/09/09 12:08:36;;;;;;;4.50;1.65;;;18.90;99.90;;;;;;5109008;27;20130;-67
2022/09/09 12:11:04;;;;;;;6.25;1.70;;;19.00;99.90;;;;;;5109416;27;20054;-69
2022/09/09 12:13:31;;;;;;;2.60;1.60;;;19.10;99.90;;;;;;5110387;27;20057;-70
2022/09/09 12:16:00;;;;;;;4.57;1.50;;;19.00;99.90;;;;;;5106339;28;20034;-67
2022/09/09 12:18:37;;;;;;;7.22;1.98;;;18.90;99.90;;;;;;5105371;27;20043;-66
2022/09/09 12:21:42;;;;;;;4.45;1.40;;;18.90;99.90;;;;;;5107103;27;20101;-73
2022/09/09 12:24:17;;;;;;;6.05;2.03;;;19.00;99.90;;;;;;5093983;27;20063;-70
2022/09/09 12:26:54;;;;;;;1.30;1.20;;;19.00;99.90;;;;;;5103614;28;20135;-69
2022/09/09 12:30:01;;;;;;;2.75;1.23;;;19.00;99.90;;;;;;5101311;27;20079;-64
2022/09/09 12:32:29;;;;;;;7.15;1.60;;;18.90;99.90;;;;;;5094377;28;20075;-67
2022/09/09 12:35:05;;;;;;;3.03;1.90;;;18.90;99.90;;;;;;5083892;27;20142;-68
2022/09/09 12:37:53;;;;;;;1.92;1.13;;;19.10;99.90;;;;;;5102514;27;20040;-64
2022/09/09 12:40:25;;;;;;;6.22;2.33;;;19.20;99.90;;;;;;5085626;28;20039;-67
2022/09/09 12:42:52;;;;;;;4.43;1.95;;;19.20;99.90;;;;;;5081725;28;20125;-68
2022/09/09 12:45:21;;;;;;;1.42;1.33;;;19.20;99.90;;;;;;5068024;28;20054;-65
2022/09/09 12:47:55;;;;;;;3.28;1.83;;;19.20;99.90;;;;;;5081212;28;20044;-67
2022/09/09 12:50:27;;;;;;;2.72;1.70;;;19.20;99.90;;;;;;5081542;28;20127;-64
2022/09/09 12:52:58;;;;;;;2.63;2.42;;;19.30;99.90;;;;;;5082802;28;20047;-65
2022/09/09 12:55:30;;;;;;;11.32;2.60;;;19.40;99.90;;;;;;5080892;28;20444;-65
2022/09/09 12:57:59;;;;;;;6.32;1.85;;;19.30;99.90;;;;;;5083396;28;20517;-65
2022/09/09 13:00:27;;;;;;;5.45;2.15;;;19.40;99.90;;;;;;5085133;28;20110;-65
2022/09/09 13:02:58;;;;;;;5.15;1.38;;;19.50;99.90;;;;;;5083067;28;20064;-67
2022/09/09 13:05:28;;;;;;;8.02;1.85;;;19.50;99.90;;;;;;5080008;28;20036;-67
2022/09/09 13:08:06;;;;;;;2.40;1.25;;;19.50;99.90;;;;;;5078539;28;20461;-66
2022/09/09 13:10:54;;;;;;;3.67;1.50;;;19.50;99.90;;;;;;5062224;28;20197;-65
2022/09/09 13:13:33;;;;;;;3.47;1.27;;;19.50;99.90;;;;;;5073639;28;20406;-67
2022/09/09 13:16:01;;;;;;;5.95;1.90;;;19.40;99.90;;;;;;5082030;28;20048;-67
2022/09/09 13:18:31;;;;;;;2.78;1.40;;;19.40;99.90;;;;;;5082797;28;20477;-68
2022/09/09 13:20:59;;;;;;;4.10;1.42;;;19.30;99.90;;;;;;5083778;28;20048;-68
2022/09/09 13:23:35;;;;;;;1.63;1.05;;;19.40;99.90;;;;;;5077027;28;20044;-66
2022/09/09 13:26:04;;;;;;;5.13;2.65;;;19.40;99.90;;;;;;5081998;28;20055;-67
2022/09/09 13:28:32;;;;;;;4.90;3.13;;;19.50;99.90;;;;;;5081493;28;20697;-63
2022/09/09 13:31:03;;;;;;;2.10;1.08;;;19.60;99.90;;;;;;5082491;28;20056;-67